Morris, Alabama
Current Conditions -  °F | °C
As of 4:53 PM on Thursday 27 Nov 2014 (Local Time) from KBHM Reporting Station
Overcast Overcast  
Wind Chill:   Ceiling: 4100
Heat Index:   Visibility: 10mi
Dew Point: -2°   Wind: 10mph
Humidity: 56%   Direction: 350°N
Pressure: 30.43"   Gusts: NA
Location:  33.75°N, 86.81°W
Report Text: KBHM 272253Z 35009KT 10SM OVC041 06/M02 A3043 RMK AO2 SLP305 T00611022
Loading
Personal Weather Stations






























Interactive Weather Map New forecast layout! Learn more

10-Day Weather Forecast

Advertisements
Track Severe Weather on mobile